Terminal Aerodrome Forecast
Issued by NWS

Home | Current Version | Previous Version | Text Only | Print | Product List | Glossary On
Versions: 1 2 3 4 5 6 7 8 9 10 11 12 13 14
000
FTUS43 KAPX 281725
TAFAPN
TAF
KAPN 281725Z 2818/0118 23009KT P6SM SKC
     FM282300 18004KT P6SM FEW190
     FM010800 19003KT P6SM OVC080 WS015/22025KT
     FM011500 22008G15KT P6SM OVC070=

USA.gov is the U.S. government's official web portal to all federal, state and local government web resources and services.